Terminal Aerodrome Forecast
Issued by NWS Anchorage, AK

Home | Current Version | Previous Version | Text Only | Print | Product List | Glossary On
Versions: 1 2 3 4 5 6 7 8 9 10 11 12 13 14 15 16 17 18 19 20 21 22 23 24 25 26 27 28 29
000
FTAK31 PANC 251538 AAC
TAFANC
TAF AMD
PANC 251538Z 2516/2618 VRB03KT 1/2SM FZFG VV002
      TEMPO 2518/2520 1SM -SN BR OVC008
     FM252000 19003KT 1SM BR BKN008
     FM252200 VRB05KT P6SM VCFG BKN015
     FM260000 VRB03KT P6SM SCT015 BKN040
     FM260600 15005KT P6SM BKN020 BKN060
     FM261400 17006KT P6SM VCSH BKN015 OVC050=

USA.gov is the U.S. government's official web portal to all federal, state and local government web resources and services.